createdAt,value
2017-10-03T00:01:04.761Z,14.43
2017-10-03T00:03:34.224Z,14.54
2017-10-03T00:06:03.989Z,14.49
2017-10-03T00:08:33.302Z,14.60
2017-10-03T00:11:02.772Z,14.51
2017-10-03T00:13:32.533Z,14.40
2017-10-03T00:16:02.279Z,14.41
2017-10-03T00:18:32.070Z,14.34
2017-10-03T00:21:01.834Z,14.36
2017-10-03T00:23:31.581Z,14.37
2017-10-03T00:26:01.375Z,14.28
2017-10-03T00:28:31.132Z,14.30
2017-10-03T00:31:00.928Z,14.32
2017-10-03T00:33:30.703Z,14.29
2017-10-03T00:35:59.980Z,14.39
2017-10-03T00:38:29.436Z,14.40
2017-10-03T00:40:58.922Z,14.31
2017-10-03T00:43:28.379Z,14.29
2017-10-03T00:45:57.852Z,14.39
2017-10-03T00:48:27.331Z,14.35
2017-10-03T00:50:56.465Z,14.34
2017-10-03T00:53:26.025Z,14.37
2017-10-03T00:55:55.169Z,14.41
2017-10-03T00:58:24.285Z,14.41
2017-10-03T01:00:53.641Z,14.51
2017-10-03T01:03:23.508Z,14.51
2017-10-03T01:05:53.059Z,14.52
2017-10-03T01:08:22.524Z,14.68
2017-10-03T01:10:51.456Z,14.54
2017-10-03T01:13:20.752Z,14.58
2017-10-03T01:15:50.379Z,14.61
2017-10-03T01:18:19.681Z,14.57
2017-10-03T01:20:48.802Z,14.54
2017-10-03T01:23:18.068Z,14.61
2017-10-03T01:25:47.513Z,14.63
2017-10-03T01:28:17.005Z,14.63
2017-10-03T01:30:46.496Z,14.58
2017-10-03T01:33:16.289Z,14.53
2017-10-03T01:35:46.069Z,14.47
2017-10-03T01:38:15.544Z,14.40
2017-10-03T01:40:45.060Z,14.37
2017-10-03T01:43:14.827Z,14.45
2017-10-03T01:45:44.579Z,14.47
2017-10-03T01:48:14.345Z,14.39
2017-10-03T01:50:43.812Z,14.40
2017-10-03T01:53:13.314Z,14.48
2017-10-03T01:55:43.065Z,14.44
2017-10-03T01:58:12.358Z,14.52
2017-10-03T02:00:41.696Z,14.59
2017-10-03T02:03:11.229Z,14.61
2017-10-03T02:05:40.994Z,14.57
2017-10-03T02:08:10.447Z,14.57
2017-10-03T02:10:39.929Z,14.59
2017-10-03T02:13:09.677Z,14.57
2017-10-03T02:15:38.940Z,14.58
2017-10-03T02:18:08.389Z,14.54
2017-10-03T02:20:37.676Z,14.54
2017-10-03T02:23:07.133Z,14.58
2017-10-03T02:25:36.420Z,14.66
2017-10-03T02:28:05.886Z,14.81
2017-10-03T02:30:35.361Z,14.74
2017-10-03T02:33:04.829Z,14.71
2017-10-03T02:35:34.322Z,14.78
2017-10-03T02:38:04.035Z,14.86
2017-10-03T02:40:33.494Z,14.81
2017-10-03T02:43:02.962Z,14.79
2017-10-03T02:45:32.498Z,14.80
2017-10-03T02:48:02.147Z,14.75
2017-10-03T02:50:31.443Z,14.81
2017-10-03T02:53:00.730Z,14.81
2017-10-03T02:55:30.189Z,14.79
2017-10-03T02:57:59.488Z,14.73
2017-10-03T03:00:28.974Z,14.82
2017-10-03T03:02:58.292Z,14.87
2017-10-03T03:05:27.763Z,14.87
2017-10-03T03:07:57.243Z,14.91
2017-10-03T03:10:26.725Z,14.91
2017-10-03T03:12:56.188Z,14.81
2017-10-03T03:15:25.677Z,14.80
2017-10-03T03:17:55.169Z,14.89
2017-10-03T03:20:24.631Z,14.81
2017-10-03T03:22:54.100Z,14.77
2017-10-03T03:25:23.616Z,14.78
2017-10-03T03:27:53.075Z,14.80
2017-10-03T03:30:22.360Z,14.81
2017-10-03T03:32:51.823Z,14.86
2017-10-03T03:35:21.308Z,14.88
2017-10-03T03:37:50.605Z,14.86
2017-10-03T03:40:20.097Z,14.90
2017-10-03T03:42:49.556Z,14.89
2017-10-03T03:45:19.058Z,14.90
2017-10-03T03:47:48.566Z,14.91
2017-10-03T03:50:17.828Z,14.96
2017-10-03T03:52:47.394Z,14.97
2017-10-03T03:55:16.694Z,14.98
2017-10-03T03:57:46.162Z,15.00
2017-10-03T04:00:15.649Z,15.01
2017-10-03T04:02:44.988Z,15.05
2017-10-03T04:05:14.462Z,15.03
2017-10-03T04:07:43.937Z,15.01
2017-10-03T04:10:13.403Z,15.03
2017-10-03T04:12:42.900Z,15.01
2017-10-03T04:15:12.420Z,15.00
2017-10-03T04:17:42.401Z,15.03
2017-10-03T04:20:11.693Z,15.00
2017-10-03T04:22:41.011Z,14.98
2017-10-03T04:25:10.640Z,15.05
2017-10-03T04:27:40.111Z,15.04
2017-10-03T04:30:09.589Z,15.02
2017-10-03T04:32:39.084Z,15.07
2017-10-03T04:35:08.568Z,15.07
2017-10-03T04:37:38.097Z,15.19
2017-10-03T04:40:07.939Z,15.11
2017-10-03T04:42:37.439Z,15.09
2017-10-03T04:45:06.978Z,15.01
2017-10-03T04:47:36.822Z,15.00
2017-10-03T04:50:06.298Z,15.04
2017-10-03T04:52:35.794Z,15.11
2017-10-03T04:55:05.287Z,15.06
2017-10-03T04:57:34.755Z,15.05
2017-10-03T05:00:04.227Z,15.03
2017-10-03T05:02:33.687Z,15.00
2017-10-03T05:05:03.140Z,15.09
2017-10-03T05:07:33.008Z,15.13
2017-10-03T05:10:02.571Z,15.08
2017-10-03T05:12:32.898Z,15.16
2017-10-03T05:15:02.591Z,15.14
2017-10-03T05:17:31.890Z,15.25
2017-10-03T05:20:01.939Z,15.35
2017-10-03T05:22:31.626Z,15.38
2017-10-03T05:25:01.071Z,15.34
2017-10-03T05:27:30.578Z,15.32
2017-10-03T05:30:00.058Z,15.28
2017-10-03T05:32:29.586Z,15.22
2017-10-03T05:34:59.371Z,15.27
2017-10-03T05:37:28.837Z,15.25
2017-10-03T05:39:58.306Z,15.27
2017-10-03T05:42:28.146Z,15.27
2017-10-03T05:44:57.668Z,15.29
2017-10-03T05:47:27.141Z,15.30
2017-10-03T05:49:56.664Z,15.31
2017-10-03T05:52:26.185Z,15.35
2017-10-03T05:54:55.654Z,15.36
2017-10-03T05:57:25.124Z,15.38
2017-10-03T05:59:54.593Z,15.40
2017-10-03T06:02:24.052Z,15.41
2017-10-03T06:04:53.584Z,15.42
2017-10-03T06:07:23.067Z,15.45
2017-10-03T06:09:52.550Z,15.48
2017-10-03T06:12:22.055Z,15.57
2017-10-03T06:14:51.702Z,15.53
2017-10-03T06:17:21.203Z,15.63
2017-10-03T06:19:50.492Z,15.58
2017-10-03T06:22:20.010Z,15.67
2017-10-03T06:24:49.504Z,15.71
2017-10-03T06:27:18.978Z,15.69
2017-10-03T06:29:48.771Z,15.70
2017-10-03T06:32:18.228Z,15.82
2017-10-03T06:34:47.745Z,15.80
2017-10-03T06:37:17.278Z,15.85
2017-10-03T06:39:46.751Z,15.91
2017-10-03T06:42:16.324Z,15.95
2017-10-03T06:44:46.125Z,16.00
2017-10-03T06:47:15.601Z,16.00
2017-10-03T06:49:45.111Z,16.04
2017-10-03T06:52:14.573Z,16.06
2017-10-03T06:54:43.833Z,16.07
2017-10-03T06:57:14.335Z,16.10
2017-10-03T06:59:44.428Z,16.14
2017-10-03T07:02:13.921Z,16.11
2017-10-03T07:04:43.380Z,16.19
2017-10-03T07:07:12.855Z,16.01
2017-10-03T07:09:42.341Z,16.14
2017-10-03T07:12:11.820Z,15.98
2017-10-03T07:14:41.292Z,16.00
2017-10-03T07:17:10.789Z,16.08
2017-10-03T07:19:40.292Z,16.08
2017-10-03T07:22:09.773Z,16.14
2017-10-03T07:24:39.254Z,16.30
2017-10-03T07:27:08.721Z,16.50
2017-10-03T07:29:38.253Z,16.64
2017-10-03T07:32:07.769Z,16.86
2017-10-03T07:34:37.213Z,17.09
2017-10-03T07:37:06.688Z,17.34
2017-10-03T07:39:36.165Z,17.32
2017-10-03T07:42:05.624Z,17.54
2017-10-03T07:44:35.096Z,17.58
2017-10-03T07:47:04.556Z,17.84
2017-10-03T07:49:34.024Z,17.63
2017-10-03T07:52:03.294Z,17.66
2017-10-03T07:54:32.806Z,17.61
2017-10-03T07:57:02.406Z,17.65
2017-10-03T07:59:31.884Z,17.51
2017-10-03T08:02:01.367Z,17.57
2017-10-03T08:04:30.820Z,17.62
2017-10-03T08:07:00.280Z,17.71
2017-10-03T08:09:29.563Z,17.57
2017-10-03T08:11:58.885Z,17.26
2017-10-03T08:14:28.463Z,17.04
2017-10-03T08:16:57.953Z,16.79
2017-10-03T08:19:27.274Z,16.62
2017-10-03T08:21:56.562Z,16.61
2017-10-03T08:24:25.854Z,16.64
2017-10-03T08:26:55.314Z,16.86
2017-10-03T08:29:24.812Z,16.98
2017-10-03T08:31:54.277Z,16.82
2017-10-03T08:34:23.752Z,16.84
2017-10-03T08:36:53.245Z,16.73
2017-10-03T08:39:23.093Z,16.55
2017-10-03T08:41:52.735Z,16.44
2017-10-03T08:44:22.220Z,16.33
2017-10-03T08:46:51.701Z,16.28
2017-10-03T08:49:21.182Z,16.20
2017-10-03T08:51:50.649Z,16.10
2017-10-03T08:54:20.212Z,15.99
2017-10-03T08:56:49.767Z,15.99
2017-10-03T08:59:19.328Z,16.14
2017-10-03T09:01:48.776Z,15.98
2017-10-03T09:04:18.326Z,16.13
2017-10-03T09:06:47.807Z,16.23
2017-10-03T09:09:17.302Z,16.29
2017-10-03T09:11:50.821Z,16.28
2017-10-03T09:14:20.315Z,16.17
2017-10-03T09:16:49.764Z,16.01
2017-10-03T09:19:19.230Z,15.88
2017-10-03T09:21:48.682Z,15.82
2017-10-03T09:24:18.158Z,15.86
2017-10-03T09:26:47.649Z,15.78
2017-10-03T09:29:17.151Z,15.87
2017-10-03T09:31:46.434Z,15.83
2017-10-03T09:34:15.915Z,15.83
2017-10-03T09:36:45.440Z,15.86
2017-10-03T09:39:15.507Z,15.96
2017-10-03T09:41:45.380Z,16.00
2017-10-03T09:44:14.843Z,16.07
2017-10-03T09:46:44.145Z,16.13
2017-10-03T09:49:13.461Z,16.12
2017-10-03T09:51:42.731Z,16.10
2017-10-03T09:54:12.026Z,16.02
2017-10-03T09:56:41.488Z,15.98
2017-10-03T09:59:10.994Z,16.07
2017-10-03T10:01:40.438Z,16.02
2017-10-03T10:04:09.892Z,16.25
2017-10-03T10:06:39.360Z,16.36
2017-10-03T10:09:08.805Z,16.31
2017-10-03T10:11:38.328Z,16.17
2017-10-03T10:14:07.918Z,16.17
2017-10-03T10:16:37.385Z,16.32
2017-10-03T10:19:06.858Z,16.15
2017-10-03T10:21:36.334Z,16.16
2017-10-03T10:24:05.828Z,16.14
2017-10-03T10:26:35.321Z,15.94
2017-10-03T10:29:04.887Z,15.67
2017-10-03T10:31:34.331Z,15.79
2017-10-03T10:34:03.828Z,15.73
2017-10-03T10:36:33.281Z,15.87
2017-10-03T10:39:02.852Z,15.80
2017-10-03T10:41:32.355Z,15.86
2017-10-03T10:44:01.781Z,15.62
2017-10-03T10:46:31.232Z,15.49
2017-10-03T10:49:01.810Z,15.45
2017-10-03T10:51:31.333Z,15.36
2017-10-03T10:54:00.796Z,15.31
2017-10-03T10:56:30.498Z,15.29
2017-10-03T10:59:00.225Z,15.39
2017-10-03T11:01:29.691Z,15.37
2017-10-03T11:03:59.151Z,15.37
2017-10-03T11:06:28.606Z,15.26
2017-10-03T11:08:58.075Z,15.19
2017-10-03T11:11:27.533Z,15.16
2017-10-03T11:13:56.993Z,15.11
2017-10-03T11:16:26.467Z,15.08
2017-10-03T11:18:55.930Z,14.94
2017-10-03T11:21:25.517Z,14.91
2017-10-03T11:24:06.624Z,14.81
2017-10-03T11:26:36.172Z,14.79
2017-10-03T11:29:05.945Z,14.69
2017-10-03T11:31:35.690Z,14.60
2017-10-03T11:34:05.444Z,14.43
2017-10-03T11:36:35.189Z,14.39
2017-10-03T11:39:04.051Z,14.30
2017-10-03T11:41:33.811Z,14.11
2017-10-03T11:44:03.621Z,14.01
2017-10-03T11:46:33.432Z,13.83
2017-10-03T11:49:14.343Z,13.96
2017-10-03T11:51:49.983Z,13.90
2017-10-03T11:54:19.737Z,13.93
2017-10-03T11:56:49.513Z,13.98
2017-10-03T11:59:19.274Z,13.78
2017-10-03T12:01:49.701Z,13.72
2017-10-03T12:04:19.444Z,13.56
2017-10-03T12:06:49.189Z,13.48
2017-10-03T12:09:18.930Z,13.34
2017-10-03T12:11:48.519Z,13.34
2017-10-03T12:14:18.127Z,13.35
2017-10-03T12:16:47.923Z,13.51
2017-10-03T12:19:17.724Z,13.47
2017-10-03T12:21:47.482Z,13.54
2017-10-03T12:24:17.239Z,13.75
2017-10-03T12:26:46.985Z,13.80
2017-10-03T12:29:16.837Z,13.97
2017-10-03T12:31:46.579Z,13.93
2017-10-03T12:34:16.350Z,13.92
2017-10-03T12:36:47.553Z,13.72
2017-10-03T12:39:17.336Z,13.55
2017-10-03T12:41:47.210Z,13.39
2017-10-03T12:44:17.040Z,13.60
2017-10-03T12:46:46.635Z,13.67
2017-10-03T12:49:16.399Z,13.77
2017-10-03T12:51:46.160Z,13.88
2017-10-03T12:54:15.941Z,13.85
2017-10-03T12:56:48.288Z,13.93
2017-10-03T12:59:18.014Z,13.79
2017-10-03T13:01:47.862Z,13.65
2017-10-03T13:04:17.625Z,13.67
2017-10-03T13:06:47.362Z,13.68
2017-10-03T13:09:17.107Z,13.61
2017-10-03T13:11:47.641Z,13.78
2017-10-03T13:14:17.618Z,13.85
2017-10-03T13:16:47.381Z,13.97
2017-10-03T13:19:17.140Z,14.20
2017-10-03T13:21:46.908Z,14.55
2017-10-03T13:24:16.509Z,14.76
2017-10-03T13:26:46.259Z,15.03
2017-10-03T13:29:16.018Z,15.32
2017-10-03T13:31:45.812Z,16.01
2017-10-03T13:34:15.614Z,16.58
2017-10-03T13:36:45.103Z,16.98
2017-10-03T13:39:14.552Z,16.97
2017-10-03T13:41:48.055Z,16.91
2017-10-03T13:44:17.562Z,17.15
2017-10-03T13:46:47.057Z,17.43
2017-10-03T13:49:16.521Z,17.28
2017-10-03T13:51:45.972Z,17.89
2017-10-03T13:54:15.437Z,18.86
2017-10-03T13:56:44.976Z,18.85
2017-10-03T13:59:14.321Z,18.38
2017-10-03T14:01:43.746Z,18.30
2017-10-03T14:04:13.205Z,17.83
2017-10-03T14:06:42.720Z,17.37
2017-10-03T14:09:12.175Z,17.19
2017-10-03T14:11:41.691Z,17.13
2017-10-03T14:14:11.136Z,16.84
2017-10-03T14:16:40.904Z,16.82
2017-10-03T14:19:10.456Z,16.78
2017-10-03T14:21:39.943Z,16.79
2017-10-03T14:24:09.450Z,16.92
2017-10-03T14:26:39.031Z,17.02
2017-10-03T14:29:08.547Z,17.24
2017-10-03T14:31:38.062Z,17.30
2017-10-03T14:34:07.556Z,17.39
2017-10-03T14:36:37.013Z,17.34
2017-10-03T14:39:06.484Z,17.45
2017-10-03T14:41:36.029Z,17.19
2017-10-03T14:44:05.529Z,16.92
2017-10-03T14:46:35.203Z,16.54
2017-10-03T14:49:04.537Z,16.30
2017-10-03T14:51:33.974Z,16.54
2017-10-03T14:54:03.479Z,16.24
2017-10-03T14:56:32.932Z,16.02
2017-10-03T14:59:02.409Z,16.11
2017-10-03T15:01:31.957Z,16.10
2017-10-03T15:04:01.400Z,16.17
2017-10-03T15:06:31.119Z,16.07
2017-10-03T15:09:01.157Z,15.96
2017-10-03T15:11:30.450Z,15.79
2017-10-03T15:14:00.892Z,15.95
2017-10-03T15:16:30.345Z,16.09
2017-10-03T15:18:59.800Z,15.87
2017-10-03T15:21:30.348Z,15.88
2017-10-03T15:23:59.900Z,15.74
2017-10-03T15:26:29.367Z,15.95
2017-10-03T15:28:58.856Z,15.88
2017-10-03T15:31:28.468Z,15.89
2017-10-03T15:33:57.942Z,15.73
2017-10-03T15:36:27.456Z,15.68
2017-10-03T15:38:56.920Z,15.68
2017-10-03T15:41:26.170Z,15.49
2017-10-03T15:43:55.616Z,15.38
2017-10-03T15:46:25.115Z,15.24
2017-10-03T15:48:54.555Z,15.17
2017-10-03T15:51:24.029Z,15.08
2017-10-03T15:53:53.479Z,14.97
2017-10-03T15:56:22.930Z,14.94
2017-10-03T15:58:52.390Z,14.86
2017-10-03T16:01:21.917Z,14.85
2017-10-03T16:03:51.878Z,14.71
2017-10-03T16:06:21.378Z,14.64
2017-10-03T16:08:51.183Z,14.69
2017-10-03T16:11:20.973Z,14.67
2017-10-03T16:13:50.426Z,14.67
2017-10-03T16:16:20.168Z,14.63
2017-10-03T16:18:49.906Z,14.57
2017-10-03T16:21:19.669Z,14.48
2017-10-03T16:23:49.757Z,14.42
2017-10-03T16:26:19.516Z,14.41
2017-10-03T16:28:49.263Z,14.28
2017-10-03T16:31:19.018Z,14.23
2017-10-03T16:33:48.723Z,14.00
2017-10-03T16:36:18.504Z,13.79
2017-10-03T16:38:48.228Z,13.60
2017-10-03T16:41:17.991Z,13.36
2017-10-03T16:43:47.723Z,13.18
2017-10-03T16:46:17.529Z,13.03
2017-10-03T16:48:52.200Z,12.88
2017-10-03T16:51:21.950Z,12.69
2017-10-03T16:53:51.737Z,12.58
2017-10-03T16:56:21.469Z,12.65
2017-10-03T16:58:51.214Z,12.51
2017-10-03T17:01:21.060Z,12.37
2017-10-03T17:03:50.800Z,12.37
2017-10-03T17:06:20.549Z,12.32
2017-10-03T17:08:50.839Z,12.25
2017-10-03T17:11:20.577Z,12.12
2017-10-03T17:13:50.320Z,12.08
2017-10-03T17:16:20.071Z,11.95
2017-10-03T17:18:49.814Z,11.89
2017-10-03T17:21:19.552Z,11.92
2017-10-03T17:23:49.317Z,11.68
2017-10-03T17:26:19.099Z,11.64
2017-10-03T17:28:49.648Z,11.56
2017-10-03T17:31:19.390Z,11.46
2017-10-03T17:33:49.237Z,11.46
2017-10-03T17:36:18.995Z,11.29
2017-10-03T17:38:48.728Z,11.23
2017-10-03T17:41:18.609Z,11.20
2017-10-03T17:43:48.353Z,11.12
2017-10-03T17:46:18.135Z,11.15
2017-10-03T17:48:47.921Z,11.04
2017-10-03T17:51:17.816Z,10.96
2017-10-03T17:53:47.604Z,10.85
2017-10-03T17:56:17.342Z,10.82
2017-10-03T17:58:47.166Z,10.75
2017-10-03T18:01:17.462Z,10.67
2017-10-03T18:03:47.283Z,10.55
2017-10-03T18:06:17.252Z,10.47
2017-10-03T18:08:47.063Z,10.44
2017-10-03T18:11:16.830Z,10.58
2017-10-03T18:13:46.560Z,10.58
2017-10-03T18:16:16.580Z,10.63
2017-10-03T18:18:46.423Z,10.77
2017-10-03T18:21:16.168Z,10.83
2017-10-03T18:23:45.901Z,10.73
2017-10-03T18:26:15.661Z,10.73
2017-10-03T18:28:45.525Z,10.60
2017-10-03T18:31:16.040Z,10.44
2017-10-03T18:33:45.774Z,10.35
2017-10-03T18:36:15.571Z,10.24
2017-10-03T18:38:45.314Z,10.10
2017-10-03T18:41:15.084Z,10.09
2017-10-03T18:43:44.500Z,10.31
2017-10-03T18:46:14.269Z,10.44
2017-10-03T18:48:44.041Z,10.42
2017-10-03T18:51:13.816Z,10.24
2017-10-03T18:53:43.569Z,10.04
2017-10-03T18:56:13.682Z,10.16
2017-10-03T18:58:43.444Z,10.31
2017-10-03T19:01:13.420Z,10.38
2017-10-03T19:03:43.272Z,10.43
2017-10-03T19:06:12.839Z,10.43
2017-10-03T19:08:42.582Z,10.39
2017-10-03T19:11:12.434Z,10.16
2017-10-03T19:13:42.169Z,9.91
2017-10-03T19:16:13.650Z,9.84
2017-10-03T19:18:43.722Z,10.04
2017-10-03T19:21:13.775Z,10.23
2017-10-03T19:23:43.568Z,10.29
2017-10-03T19:26:13.373Z,10.31
2017-10-03T19:28:43.826Z,10.22
2017-10-03T19:31:14.250Z,10.04
2017-10-03T19:33:44.721Z,9.93
2017-10-03T19:36:14.520Z,9.98
2017-10-03T19:38:45.088Z,9.86
2017-10-03T19:41:15.737Z,9.80
2017-10-03T19:43:47.470Z,9.88
2017-10-03T19:46:17.791Z,9.87
2017-10-03T19:48:47.677Z,9.82
2017-10-03T19:51:17.598Z,9.73
2017-10-03T19:53:47.326Z,9.64
2017-10-03T19:56:17.202Z,9.60
2017-10-03T19:58:47.194Z,9.58
2017-10-03T20:01:16.966Z,9.63
2017-10-03T20:03:46.750Z,9.58
2017-10-03T20:06:16.485Z,9.71
2017-10-03T20:08:46.204Z,9.74
2017-10-03T20:11:15.955Z,9.77
2017-10-03T20:13:45.722Z,9.87
2017-10-03T20:16:16.477Z,9.95
2017-10-03T20:18:47.328Z,10.03
2017-10-03T20:21:19.558Z,10.05
2017-10-03T20:23:51.069Z,10.02
2017-10-03T20:26:21.941Z,10.06
2017-10-03T20:28:52.838Z,10.01
2017-10-03T20:31:23.087Z,9.82
2017-10-03T20:33:53.349Z,9.75
2017-10-03T20:36:23.621Z,9.74
2017-10-03T20:38:54.712Z,9.76
2017-10-03T20:41:25.145Z,9.67
2017-10-03T20:43:55.018Z,9.74
2017-10-03T20:46:24.561Z,9.70
2017-10-03T20:48:54.282Z,9.62
2017-10-03T20:51:24.021Z,9.50
2017-10-03T20:53:53.912Z,9.57
2017-10-03T20:56:23.698Z,9.49
2017-10-03T20:58:53.283Z,9.25
2017-10-03T21:01:23.064Z,9.17
2017-10-03T21:03:52.859Z,9.31
2017-10-03T21:06:22.461Z,9.29
2017-10-03T21:08:52.229Z,9.37
2017-10-03T21:11:22.066Z,9.42
2017-10-03T21:13:51.808Z,9.40
2017-10-03T21:16:21.532Z,9.27
2017-10-03T21:18:51.294Z,9.30
2017-10-03T21:21:21.100Z,9.35
2017-10-03T21:23:50.697Z,9.29
2017-10-03T21:26:20.461Z,9.26
2017-10-03T21:28:50.230Z,9.18
2017-10-03T21:31:20.015Z,9.13
2017-10-03T21:33:49.806Z,9.20
2017-10-03T21:36:19.524Z,9.26
2017-10-03T21:38:49.345Z,9.12
2017-10-03T21:41:18.825Z,8.98
2017-10-03T21:43:48.206Z,8.86
2017-10-03T21:46:17.737Z,8.75
2017-10-03T21:48:47.484Z,8.79
2017-10-03T21:51:20.627Z,9.06
2017-10-03T21:53:50.440Z,9.21
2017-10-03T21:56:20.183Z,9.22
2017-10-03T21:58:49.947Z,9.06
2017-10-03T22:01:19.778Z,8.90
2017-10-03T22:03:50.085Z,8.88
2017-10-03T22:06:20.117Z,9.00
2017-10-03T22:08:49.869Z,9.07
2017-10-03T22:11:19.709Z,9.07
2017-10-03T22:13:49.551Z,9.06
2017-10-03T22:16:19.297Z,8.98
2017-10-03T22:18:49.036Z,8.84
2017-10-03T22:21:18.778Z,8.65
2017-10-03T22:23:48.541Z,8.77
2017-10-03T22:26:18.288Z,8.86
2017-10-03T22:28:48.057Z,8.93
2017-10-03T22:31:17.790Z,8.95
2017-10-03T22:33:47.596Z,8.98
2017-10-03T22:36:17.602Z,8.89
2017-10-03T22:38:47.609Z,8.71
2017-10-03T22:41:21.422Z,8.59
2017-10-03T22:43:51.206Z,8.54
2017-10-03T22:46:20.975Z,8.40
2017-10-03T22:48:50.957Z,8.22
2017-10-03T22:51:26.209Z,8.06
2017-10-03T22:53:56.046Z,8.18
2017-10-03T22:56:25.800Z,8.42
2017-10-03T22:58:55.544Z,8.43
2017-10-03T23:01:25.309Z,8.46
2017-10-03T23:03:54.891Z,8.31
2017-10-03T23:06:24.649Z,8.18
2017-10-03T23:08:54.206Z,8.08
2017-10-03T23:11:23.984Z,8.27
2017-10-03T23:13:53.735Z,8.40
2017-10-03T23:16:23.510Z,8.33
2017-10-03T23:18:53.236Z,8.20
2017-10-03T23:21:23.029Z,8.19
2017-10-03T23:23:52.791Z,8.24
2017-10-03T23:26:22.528Z,8.32
2017-10-03T23:28:52.297Z,8.29
2017-10-03T23:31:22.186Z,8.17
2017-10-03T23:33:51.961Z,8.06
2017-10-03T23:36:21.724Z,7.89
2017-10-03T23:38:51.498Z,7.78
2017-10-03T23:41:21.250Z,7.83
2017-10-03T23:43:51.001Z,7.96
2017-10-03T23:46:20.762Z,7.87
2017-10-03T23:48:50.501Z,7.75
2017-10-03T23:51:20.309Z,7.84
2017-10-03T23:53:50.069Z,7.86
2017-10-03T23:56:19.807Z,7.94
2017-10-03T23:58:49.558Z,7.85
